createdAt,value
2024-01-24T00:00:33.915Z,3.58
2024-01-24T00:03:35.783Z,2.92
2024-01-24T00:06:37.772Z,2.30
2024-01-24T00:09:39.679Z,2.20
2024-01-24T00:12:41.590Z,1.77
2024-01-24T00:15:44.819Z,4.15
2024-01-24T00:18:46.638Z,3.22
2024-01-24T00:21:48.418Z,2.63
2024-01-24T00:24:50.355Z,0.98
2024-01-24T00:27:52.185Z,7.95
2024-01-24T00:30:55.339Z,3.50
2024-01-24T00:33:57.405Z,6.30
2024-01-24T00:36:59.225Z,3.78
2024-01-24T00:40:00.999Z,7.80
2024-01-24T00:43:02.774Z,2.75
2024-01-24T00:46:06.309Z,3.35
2024-01-24T00:49:10.000Z,4.57
2024-01-24T00:52:11.874Z,2.47
2024-01-24T00:55:13.744Z,1.50
2024-01-24T00:58:15.481Z,5.45
2024-01-24T01:01:18.671Z,2.85
2024-01-24T01:04:22.858Z,3.45
2024-01-24T01:07:24.695Z,4.22
2024-01-24T01:10:26.954Z,5.90
2024-01-24T01:13:28.784Z,3.95
2024-01-24T01:16:32.359Z,3.35
2024-01-24T01:19:34.222Z,3.95
2024-01-24T01:22:35.971Z,3.08
2024-01-24T01:25:37.720Z,4.55
2024-01-24T01:28:39.742Z,3.00
2024-01-24T01:31:42.814Z,2.17
2024-01-24T01:34:44.569Z,2.85
2024-01-24T01:37:46.365Z,6.85
2024-01-24T01:40:48.037Z,3.25
2024-01-24T01:44:09.677Z,6.43
2024-01-24T01:47:22.833Z,6.43
2024-01-24T01:50:24.921Z,2.28
2024-01-24T01:53:27.663Z,6.53
2024-01-24T01:56:29.604Z,4.60
2024-01-24T01:59:31.636Z,6.00
2024-01-24T02:02:34.730Z,3.10
2024-01-24T02:05:39.333Z,1.83
2024-01-24T02:08:41.383Z,3.78
2024-01-24T02:11:43.257Z,2.85
2024-01-24T02:14:54.979Z,2.33
2024-01-24T02:18:08.067Z,4.72
2024-01-24T02:21:10.026Z,0.38
2024-01-24T02:28:34.733Z,0.82
2024-01-24T02:31:36.423Z,0.68
2024-01-24T02:34:38.402Z,4.05
2024-01-24T02:37:40.295Z,1.83
2024-01-24T02:40:42.357Z,4.00
2024-01-24T02:43:45.481Z,0.40
2024-01-24T02:46:47.239Z,2.42
2024-01-24T02:49:48.988Z,1.10
2024-01-24T02:52:50.808Z,3.15
2024-01-24T02:55:52.852Z,2.78
2024-01-24T02:58:56.093Z,3.88
2024-01-24T03:01:57.815Z,0.95
2024-01-24T03:05:00.518Z,1.48
2024-01-24T03:08:07.487Z,2.58
2024-01-24T03:11:11.344Z,3.40
2024-01-24T03:14:14.411Z,4.95
2024-01-24T03:17:16.245Z,0.68
2024-01-24T03:20:18.215Z,4.57
2024-01-24T03:23:20.319Z,1.75
2024-01-24T03:26:22.508Z,2.45
2024-01-24T03:29:25.591Z,2.28
2024-01-24T03:32:27.442Z,2.65
2024-01-24T03:35:34.783Z,2.80
2024-01-24T03:38:36.655Z,0.55
2024-01-24T03:41:39.090Z,1.50
2024-01-24T03:44:42.241Z,1.02
2024-01-24T03:47:44.075Z,1.00
2024-01-24T03:50:45.910Z,3.25
2024-01-24T03:53:47.642Z,2.63
2024-01-24T03:56:49.472Z,0.50
2024-01-24T03:59:52.582Z,0.73
2024-01-24T04:02:54.348Z,3.88
2024-01-24T04:05:56.965Z,1.45
2024-01-24T04:08:58.783Z,0.93
2024-01-24T04:12:06.044Z,1.80
2024-01-24T04:15:10.240Z,0.13
2024-01-24T04:18:12.206Z,1.45
2024-01-24T04:21:14.112Z,0.73
2024-01-24T04:24:16.788Z,0.52
2024-01-24T04:27:19.284Z,2.28
2024-01-24T04:30:22.658Z,0.60
2024-01-24T04:33:24.520Z,1.05
2024-01-24T04:36:26.543Z,0.30
2024-01-24T04:39:28.512Z,0.52
2024-01-24T04:42:30.266Z,1.65
2024-01-24T04:45:33.322Z,0.73
2024-01-24T04:48:35.139Z,0.98
2024-01-24T04:51:36.885Z,0.38
2024-01-24T04:54:38.762Z,0.57
2024-01-24T04:57:41.568Z,0.98
2024-01-24T05:00:44.795Z,1.58
2024-01-24T05:03:46.750Z,2.38
2024-01-24T05:06:48.659Z,0.57
2024-01-24T05:09:53.422Z,1.30
2024-01-24T05:12:55.497Z,1.40
2024-01-24T05:15:59.661Z,1.23
2024-01-24T05:19:01.563Z,3.22
2024-01-24T05:22:03.498Z,2.08
2024-01-24T05:25:06.349Z,4.78
2024-01-24T05:28:09.378Z,1.25
2024-01-24T05:31:12.597Z,0.57
2024-01-24T05:34:14.645Z,2.33
2024-01-24T05:37:16.452Z,0.90
2024-01-24T05:40:18.523Z,1.55
2024-01-24T05:43:20.418Z,0.20
2024-01-24T05:46:23.477Z,0.20
2024-01-24T05:49:25.488Z,0.30
2024-01-24T05:52:27.410Z,0.43
2024-01-24T05:55:29.631Z,0.43
2024-01-24T05:58:31.304Z,0.57
2024-01-24T06:01:34.560Z,0.00
2024-01-24T06:04:36.642Z,1.00
2024-01-24T06:07:41.243Z,1.48
2024-01-24T06:10:43.062Z,0.73
2024-01-24T06:13:45.058Z,0.95
2024-01-24T06:16:48.180Z,5.00
2024-01-24T06:19:51.279Z,0.73
2024-01-24T06:22:52.980Z,0.70
2024-01-24T06:25:54.889Z,0.45
2024-01-24T06:28:58.026Z,0.70
2024-01-24T06:32:01.094Z,0.70
2024-01-24T06:35:03.255Z,0.55
2024-01-24T06:38:05.171Z,0.52
2024-01-24T06:41:06.988Z,0.20
2024-01-24T06:44:08.908Z,0.63
2024-01-24T06:47:11.920Z,1.60
2024-01-24T06:50:14.952Z,0.30
2024-01-24T06:53:16.842Z,0.73
2024-01-24T06:56:18.824Z,1.27
2024-01-24T06:59:20.966Z,0.45
2024-01-24T07:02:24.068Z,0.98
2024-01-24T07:05:25.964Z,1.83
2024-01-24T07:08:28.560Z,0.93
2024-01-24T07:11:30.269Z,0.65
2024-01-24T07:14:31.997Z,0.75
2024-01-24T07:17:35.129Z,0.10
2024-01-24T07:20:37.112Z,0.00
2024-01-24T07:23:40.247Z,2.60
2024-01-24T07:26:42.055Z,0.15
2024-01-24T07:29:43.726Z,0.35
2024-01-24T07:32:46.827Z,0.38
2024-01-24T07:35:48.565Z,2.55
2024-01-24T07:38:50.280Z,0.05
2024-01-24T07:41:52.060Z,0.22
2024-01-24T07:44:53.691Z,0.30
2024-01-24T07:47:56.888Z,0.75
2024-01-24T07:50:58.986Z,0.95
2024-01-24T07:54:00.761Z,0.40
2024-01-24T07:57:04.686Z,0.03
2024-01-24T08:00:08.069Z,1.40
2024-01-24T08:03:11.307Z,1.27
2024-01-24T08:06:13.142Z,0.03
2024-01-24T08:09:15.581Z,0.85
2024-01-24T08:12:17.786Z,0.25
2024-01-24T08:15:20.111Z,0.38
2024-01-24T08:18:23.341Z,0.55
2024-01-24T08:21:25.193Z,0.32
2024-01-24T08:24:27.144Z,0.35
2024-01-24T08:27:29.099Z,0.60
2024-01-24T08:30:31.438Z,0.77
2024-01-24T08:33:54.790Z,0.63
2024-01-24T08:40:30.064Z,0.00
2024-01-24T08:43:31.764Z,0.30
2024-01-24T08:46:34.045Z,1.05
2024-01-24T08:49:35.871Z,0.35
2024-01-24T08:52:42.970Z,0.55
2024-01-24T08:58:17.076Z,0.45
2024-01-24T09:01:19.078Z,0.70
2024-01-24T09:04:26.158Z,3.65
2024-01-24T09:07:27.981Z,1.35
2024-01-24T09:10:30.407Z,1.33
2024-01-24T09:13:34.248Z,2.33
2024-01-24T09:16:36.032Z,1.55
2024-01-24T09:19:41.479Z,0.22
2024-01-24T09:22:44.190Z,0.30
2024-01-24T09:25:46.080Z,0.10
2024-01-24T09:31:20.677Z,0.20
2024-01-24T09:34:24.609Z,0.20
2024-01-24T09:37:29.835Z,0.60
2024-01-24T09:40:38.736Z,0.35
2024-01-24T09:43:40.585Z,0.40
2024-01-24T09:46:44.156Z,2.08
2024-01-24T09:49:47.261Z,0.85
2024-01-24T09:52:51.408Z,1.45
2024-01-24T09:55:54.569Z,0.65
2024-01-24T09:58:57.032Z,2.17
2024-01-24T10:02:09.940Z,0.45
2024-01-24T10:05:16.618Z,0.22
2024-01-24T10:08:19.411Z,3.10
2024-01-24T10:11:23.226Z,0.88
2024-01-24T10:14:25.006Z,1.05
2024-01-24T10:17:32.815Z,3.72
2024-01-24T10:20:36.032Z,0.45
2024-01-24T10:23:37.667Z,3.33
2024-01-24T10:26:44.534Z,2.83
2024-01-24T10:29:50.573Z,2.50
2024-01-24T10:32:59.148Z,1.23
2024-01-24T10:36:10.582Z,4.20
2024-01-24T10:39:21.215Z,0.98
2024-01-24T10:42:29.849Z,2.13
2024-01-24T10:45:44.929Z,1.65
2024-01-24T10:48:48.657Z,0.55
2024-01-24T10:51:51.880Z,2.47
2024-01-24T10:54:55.592Z,2.80
2024-01-24T10:57:57.840Z,6.25
2024-01-24T11:00:59.877Z,1.55
2024-01-24T11:04:07.886Z,5.13
2024-01-24T11:07:16.875Z,4.10
2024-01-24T11:10:24.112Z,2.25
2024-01-24T11:13:25.969Z,2.35
2024-01-24T11:16:32.219Z,4.00
2024-01-24T11:19:35.708Z,1.17
2024-01-24T11:22:38.197Z,3.00
2024-01-24T11:25:40.002Z,3.75
2024-01-24T11:28:41.865Z,3.95
2024-01-24T11:31:44.458Z,2.33
2024-01-24T11:34:48.256Z,3.17
2024-01-24T11:37:51.763Z,3.75
2024-01-24T11:40:58.499Z,6.70
2024-01-24T11:44:00.683Z,3.25
2024-01-24T11:47:02.755Z,2.85
2024-01-24T11:50:08.923Z,3.53
2024-01-24T11:56:15.422Z,6.22
2024-01-24T11:59:20.878Z,3.92
2024-01-24T12:02:23.039Z,2.80
2024-01-24T12:05:26.074Z,3.67
2024-01-24T12:08:28.882Z,4.97
2024-01-24T12:11:30.509Z,4.50
2024-01-24T12:14:32.794Z,2.67
2024-01-24T12:17:36.132Z,4.38
2024-01-24T12:20:48.474Z,1.92
2024-01-24T12:23:50.674Z,4.70
2024-01-24T12:26:53.860Z,3.05
2024-01-24T12:29:56.366Z,5.97
2024-01-24T12:32:58.835Z,6.57
2024-01-24T12:36:05.958Z,5.10
2024-01-24T12:39:07.731Z,4.88
2024-01-24T12:42:09.432Z,5.15
2024-01-24T12:45:15.165Z,3.47
2024-01-24T12:48:17.561Z,5.70
2024-01-24T12:51:20.633Z,4.88
2024-01-24T12:54:32.461Z,3.53
2024-01-24T13:00:37.087Z,4.18
2024-01-24T13:03:38.947Z,9.98
2024-01-24T13:06:42.448Z,9.02
2024-01-24T13:09:50.246Z,8.27
2024-01-24T13:12:56.637Z,3.92
2024-01-24T13:15:59.756Z,2.95
2024-01-24T13:19:02.860Z,8.15
2024-01-24T13:22:06.242Z,5.75
2024-01-24T13:25:09.598Z,5.45
2024-01-24T13:28:12.928Z,4.85
2024-01-24T13:31:16.231Z,8.85
2024-01-24T13:34:21.989Z,3.30
2024-01-24T13:37:25.519Z,10.43
2024-01-24T13:40:27.336Z,6.32
2024-01-24T13:43:29.218Z,8.93
2024-01-24T13:46:31.358Z,12.52
2024-01-24T13:49:44.491Z,7.15
2024-01-24T13:52:48.567Z,7.57
2024-01-24T13:55:50.718Z,3.45
2024-01-24T13:58:53.798Z,8.05
2024-01-24T14:02:00.047Z,6.03
2024-01-24T14:05:03.254Z,7.97
2024-01-24T14:08:16.525Z,5.60
2024-01-24T14:11:21.170Z,7.65
2024-01-24T14:14:41.754Z,7.65
2024-01-24T14:18:39.671Z,5.13
2024-01-24T14:21:42.066Z,2.88
2024-01-24T14:24:44.090Z,7.85
2024-01-24T14:27:45.934Z,1.95
2024-01-24T14:30:47.728Z,7.38
2024-01-24T14:33:51.033Z,3.13
2024-01-24T14:36:56.031Z,7.38
2024-01-24T14:40:07.731Z,9.63
2024-01-24T14:43:09.615Z,7.90
2024-01-24T14:46:15.417Z,6.97
2024-01-24T14:49:38.522Z,8.98
2024-01-24T14:53:45.568Z,13.48
2024-01-24T14:56:48.641Z,6.82
2024-01-24T14:59:51.141Z,11.18
2024-01-24T15:02:52.940Z,9.10
2024-01-24T15:05:54.718Z,9.18
2024-01-24T15:08:57.847Z,9.15
2024-01-24T15:11:59.611Z,8.77
2024-01-24T15:15:20.343Z,6.82
2024-01-24T15:20:38.534Z,13.75
2024-01-24T15:23:45.035Z,10.02
2024-01-24T15:26:46.841Z,12.93
2024-01-24T15:29:49.436Z,8.80
2024-01-24T15:32:51.767Z,6.90
2024-01-24T15:35:54.905Z,10.38
2024-01-24T15:38:56.720Z,6.15
2024-01-24T15:42:01.576Z,7.97
2024-01-24T15:45:04.063Z,10.18
2024-01-24T15:48:06.751Z,8.13
2024-01-24T15:51:21.037Z,8.77
2024-01-24T15:54:22.922Z,10.40
2024-01-24T15:57:24.900Z,4.20
2024-01-24T16:00:26.788Z,9.20
2024-01-24T16:03:33.559Z,12.45
2024-01-24T16:06:36.878Z,9.48
2024-01-24T16:09:39.655Z,14.25
2024-01-24T16:12:41.640Z,12.95
2024-01-24T16:16:03.488Z,6.60
2024-01-24T16:19:22.561Z,11.55
2024-01-24T16:22:32.831Z,12.60
2024-01-24T16:25:38.280Z,7.10
2024-01-24T16:28:40.443Z,10.98
2024-01-24T16:31:42.282Z,8.95
2024-01-24T16:34:44.131Z,4.57
2024-01-24T16:37:47.250Z,8.18
2024-01-24T16:40:49.234Z,6.18
2024-01-24T16:43:51.583Z,9.00
2024-01-24T16:46:57.964Z,12.23
2024-01-24T16:49:59.840Z,14.75
2024-01-24T16:53:03.128Z,27.58
2024-01-24T16:56:05.150Z,11.07
2024-01-24T16:59:07.310Z,9.52
2024-01-24T17:02:34.841Z,10.18
2024-01-24T17:05:44.320Z,14.02
2024-01-24T17:08:51.979Z,15.00
2024-01-24T17:11:53.733Z,21.13
2024-01-24T17:15:14.644Z,11.05
2024-01-24T17:18:16.662Z,14.00
2024-01-24T17:21:23.217Z,11.52
2024-01-24T17:24:46.434Z,12.75
2024-01-24T17:27:48.330Z,11.40
2024-01-24T17:30:51.863Z,10.13
2024-01-24T17:33:53.743Z,7.22
2024-01-24T17:36:55.649Z,9.93
2024-01-24T17:39:58.719Z,17.98
2024-01-24T17:43:00.581Z,10.02
2024-01-24T17:46:02.519Z,13.13
2024-01-24T17:49:04.472Z,11.20
2024-01-24T17:52:06.783Z,15.00
2024-01-24T17:55:10.600Z,11.63
2024-01-24T17:58:12.653Z,24.77
2024-01-24T18:01:14.495Z,16.50
2024-01-24T18:04:16.399Z,27.35
2024-01-24T18:07:20.656Z,11.32
2024-01-24T18:10:26.206Z,14.07
2024-01-24T18:13:29.189Z,9.05
2024-01-24T18:16:31.070Z,9.23
2024-01-24T18:19:33.624Z,38.15
2024-01-24T18:22:35.749Z,22.83
2024-01-24T18:28:44.473Z,8.95
2024-01-24T18:31:46.495Z,7.75
2024-01-24T18:34:48.598Z,9.82
2024-01-24T18:37:50.708Z,9.90
2024-01-24T18:40:54.109Z,10.02
2024-01-24T18:43:55.989Z,6.55
2024-01-24T18:46:58.650Z,14.93
2024-01-24T18:50:01.080Z,8.07
2024-01-24T18:53:04.071Z,13.45
2024-01-24T18:56:08.382Z,7.40
2024-01-24T18:59:13.868Z,14.40
2024-01-24T19:02:18.441Z,12.15
2024-01-24T19:05:26.652Z,9.98
2024-01-24T19:08:39.606Z,12.13
2024-01-24T19:11:55.252Z,12.07
2024-01-24T19:14:57.605Z,16.27
2024-01-24T19:18:07.268Z,8.13
2024-01-24T19:21:18.382Z,9.50
2024-01-24T19:24:23.722Z,11.45
2024-01-24T19:27:27.256Z,7.47
2024-01-24T19:30:29.589Z,15.27
2024-01-24T19:33:34.256Z,9.43
2024-01-24T19:36:36.571Z,18.00
2024-01-24T19:39:40.302Z,14.27
2024-01-24T19:42:47.535Z,9.20
2024-01-24T19:45:49.864Z,10.82
2024-01-24T19:48:54.918Z,10.45
2024-01-24T19:51:57.111Z,13.25
2024-01-24T19:54:58.972Z,12.77
2024-01-24T19:58:03.301Z,16.23
2024-01-24T20:01:05.887Z,8.43
2024-01-24T20:04:08.074Z,16.23
2024-01-24T20:07:14.374Z,14.73
2024-01-24T20:10:16.859Z,11.80
2024-01-24T20:13:21.780Z,13.40
2024-01-24T20:16:31.303Z,15.80
2024-01-24T20:19:33.167Z,9.93
2024-01-24T20:22:35.415Z,7.28
2024-01-24T20:25:37.150Z,7.53
2024-01-24T20:28:40.524Z,11.43
2024-01-24T20:31:42.226Z,13.90
2024-01-24T20:34:44.197Z,6.97
2024-01-24T20:37:46.133Z,11.20
2024-01-24T20:40:47.850Z,15.63
2024-01-24T20:43:50.993Z,7.43
2024-01-24T20:46:52.699Z,15.40
2024-01-24T20:49:56.085Z,11.10
2024-01-24T20:52:57.938Z,8.95
2024-01-24T20:55:59.894Z,8.35
2024-01-24T20:59:02.924Z,10.35
2024-01-24T21:02:05.139Z,7.65
2024-01-24T21:05:07.954Z,13.82
2024-01-24T21:08:12.671Z,11.35
2024-01-24T21:11:17.771Z,11.15
2024-01-24T21:14:21.349Z,9.02
2024-01-24T21:17:23.072Z,8.55
2024-01-24T21:20:24.984Z,12.50
2024-01-24T21:23:27.177Z,14.35
2024-01-24T21:26:28.938Z,11.38
2024-01-24T21:29:31.953Z,6.82
2024-01-24T21:32:34.462Z,9.70
2024-01-24T21:35:36.884Z,15.32
2024-01-24T21:38:38.655Z,11.23
2024-01-24T21:41:40.405Z,14.48
2024-01-24T21:44:44.046Z,9.15
2024-01-24T21:47:46.140Z,11.95
2024-01-24T21:50:47.964Z,15.63
2024-01-24T21:53:49.728Z,8.27
2024-01-24T21:56:53.172Z,14.23
2024-01-24T21:59:56.189Z,17.85
2024-01-24T22:02:57.868Z,5.45
2024-01-24T22:05:59.518Z,8.77
2024-01-24T22:09:01.483Z,7.45
2024-01-24T22:12:03.544Z,17.25
2024-01-24T22:15:09.144Z,14.57
2024-01-24T22:18:11.917Z,11.30
2024-01-24T22:21:13.979Z,12.02
2024-01-24T22:24:15.807Z,8.05
2024-01-24T22:27:17.798Z,13.73
2024-01-24T22:30:20.834Z,11.27
2024-01-24T22:33:23.039Z,13.52
2024-01-24T22:36:30.054Z,12.25
2024-01-24T22:39:31.899Z,10.65
2024-01-24T22:42:33.631Z,15.68
2024-01-24T22:45:36.827Z,12.45
2024-01-24T22:48:38.875Z,6.25
2024-01-24T22:51:40.972Z,8.30
2024-01-24T22:54:42.880Z,7.95
2024-01-24T22:57:49.997Z,12.63
2024-01-24T23:00:53.924Z,7.47
2024-01-24T23:03:55.906Z,6.75
2024-01-24T23:06:57.802Z,9.45
2024-01-24T23:09:59.871Z,9.40
2024-01-24T23:13:01.681Z,8.65
2024-01-24T23:16:05.813Z,15.00
2024-01-24T23:19:08.066Z,7.53
2024-01-24T23:22:09.930Z,11.18
2024-01-24T23:25:11.723Z,17.90
2024-01-24T23:28:15.915Z,16.40
2024-01-24T23:31:19.055Z,9.38
2024-01-24T23:34:20.978Z,10.10
2024-01-24T23:37:22.920Z,13.75
2024-01-24T23:40:24.734Z,13.13
2024-01-24T23:43:26.662Z,10.00
2024-01-24T23:46:34.283Z,9.98
2024-01-24T23:49:37.156Z,13.48
2024-01-24T23:52:39.115Z,8.23
2024-01-24T23:55:40.896Z,9.75
2024-01-24T23:58:42.570Z,6.63
